Time;durP1;ratioP1;P1;durP2;ratioP2;P2;SDS_P1;SDS_P2;PMS_P1;PMS_P2;Temp;Humidity;BMP_temperature;BMP_pressure;BME280_temperature;BME280_humidity;BME280_pressure;Samples;Min_cycle;Max_cycle;Signal;HPM_P1;HPM_P2
2022/04/12 00:01:06;;;;;;;12.93;9.15;;;9.30;99.90;;;;;;5075709;28;20043;-72
2022/04/12 00:03:32;;;;;;;11.52;9.23;;;9.30;99.90;;;;;;5074954;28;20032;-72
2022/04/12 00:05:57;;;;;;;15.77;10.23;;;9.30;99.90;;;;;;5074868;28;20100;-72
2022/04/12 00:08:23;;;;;;;12.50;9.98;;;9.20;99.90;;;;;;5075017;28;20040;-72
2022/04/12 00:10:49;;;;;;;13.35;9.73;;;9.20;99.90;;;;;;5074870;28;20040;-72
2022/04/12 00:13:17;;;;;;;14.98;9.90;;;9.20;99.90;;;;;;5074843;28;20048;-72
2022/04/12 00:15:49;;;;;;;13.63;9.23;;;9.20;99.90;;;;;;5074744;28;20416;-72
2022/04/12 00:21:01;;;;;;;16.20;10.77;;;9.10;99.90;;;;;;5075034;28;20109;-72
2022/04/12 00:23:27;;;;;;;10.30;9.10;;;9.10;99.90;;;;;;5074758;28;20039;-72
2022/04/12 00:25:53;;;;;;;14.35;10.65;;;9.10;99.90;;;;;;5074695;28;20040;-72
2022/04/12 00:28:19;;;;;;;14.13;10.50;;;9.10;99.90;;;;;;5074618;28;20071;-72
2022/04/12 00:30:45;;;;;;;13.80;10.65;;;9.10;99.90;;;;;;5074969;28;20040;-72
2022/04/12 00:33:11;;;;;;;14.55;10.85;;;9.00;99.90;;;;;;5075486;28;20403;-71
2022/04/12 00:35:36;;;;;;;13.98;10.77;;;9.00;99.90;;;;;;5078349;28;20544;-72
2022/04/12 00:38:13;;;;;;;16.88;11.48;;;9.00;99.90;;;;;;5078617;28;20062;-72
2022/04/12 00:40:39;;;;;;;13.30;10.27;;;8.90;99.90;;;;;;5078340;28;20043;-71
2022/04/12 00:43:05;;;;;;;14.00;10.52;;;8.90;99.90;;;;;;5078268;28;20040;-71
2022/04/12 00:45:30;;;;;;;13.20;10.80;;;8.90;99.90;;;;;;5078561;28;20055;-71
2022/04/12 00:47:56;;;;;;;13.38;10.50;;;8.90;99.90;;;;;;5078171;28;20500;-72
2022/04/12 00:50:21;;;;;;;13.95;10.60;;;8.90;99.90;;;;;;5078175;28;20036;-72
2022/04/12 00:52:53;;;;;;;13.57;10.38;;;8.80;99.90;;;;;;5078122;28;20048;-71
2022/04/12 00:55:19;;;;;;;15.32;10.88;;;8.90;99.90;;;;;;5077977;28;20040;-72
2022/04/12 00:57:45;;;;;;;12.07;10.55;;;8.80;99.90;;;;;;5078054;28;20039;-72
2022/04/12 01:00:12;;;;;;;12.60;10.15;;;8.80;99.90;;;;;;5078193;28;20063;-72
2022/04/12 01:02:39;;;;;;;12.80;10.45;;;8.80;99.90;;;;;;5077848;28;20036;-71
2022/04/12 01:05:05;;;;;;;12.90;9.73;;;8.80;99.90;;;;;;5077955;28;20040;-71
2022/04/12 01:07:32;;;;;;;13.43;10.25;;;8.70;99.90;;;;;;5061106;28;20033;-71
2022/04/12 01:09:58;;;;;;;12.43;10.45;;;8.70;99.90;;;;;;5077654;28;20546;-72
2022/04/12 01:12:27;;;;;;;12.93;9.95;;;8.70;99.90;;;;;;5077974;28;20047;-72
2022/04/12 01:14:52;;;;;;;11.77;9.88;;;8.60;99.90;;;;;;5077779;28;20491;-72
2022/04/12 01:17:18;;;;;;;12.30;9.70;;;8.60;99.90;;;;;;5077894;28;20638;-71
2022/04/12 01:19:44;;;;;;;11.95;9.88;;;8.60;99.90;;;;;;5077513;28;20422;-71
2022/04/12 01:22:15;;;;;;;15.15;10.07;;;8.60;99.90;;;;;;5077831;28;20107;-71
2022/04/12 01:24:41;;;;;;;13.65;10.23;;;8.50;99.90;;;;;;5077579;28;20086;-72
2022/04/12 01:27:06;;;;;;;14.63;10.23;;;8.50;99.90;;;;;;5077438;28;20036;-72
2022/04/12 01:29:34;;;;;;;12.55;9.20;;;8.50;99.90;;;;;;5077380;28;20097;-72
2022/04/12 01:32:01;;;;;;;14.43;9.65;;;8.50;99.90;;;;;;5077425;28;20118;-72
2022/04/12 01:34:27;;;;;;;13.13;10.00;;;8.50;99.90;;;;;;5077473;28;20215;-71
2022/04/12 01:36:52;;;;;;;14.85;10.55;;;8.50;99.90;;;;;;5077481;28;20040;-71
2022/04/12 01:39:18;;;;;;;11.82;10.07;;;8.50;99.90;;;;;;5077305;28;20438;-72
2022/04/12 01:41:43;;;;;;;11.38;9.48;;;8.50;99.90;;;;;;5077173;28;20524;-71
2022/04/12 01:44:09;;;;;;;11.80;9.75;;;8.50;99.90;;;;;;5077033;28;20043;-71
2022/04/12 01:46:34;;;;;;;13.52;9.35;;;8.50;99.90;;;;;;5077414;28;20131;-71
2022/04/12 01:49:00;;;;;;;13.15;9.77;;;8.40;99.90;;;;;;5076970;28;20438;-71
2022/04/12 01:51:26;;;;;;;12.45;9.07;;;8.40;99.90;;;;;;5076992;28;20040;-71
2022/04/12 01:53:51;;;;;;;10.10;9.05;;;8.40;99.90;;;;;;5060239;28;20089;-71
2022/04/12 01:56:17;;;;;;;11.52;9.38;;;8.40;99.90;;;;;;5076934;28;20420;-72
2022/04/12 01:58:42;;;;;;;13.55;9.52;;;8.40;99.90;;;;;;5077054;28;20118;-72
2022/04/12 02:01:08;;;;;;;11.60;10.02;;;8.40;99.90;;;;;;5076804;28;20043;-72
2022/04/12 02:03:34;;;;;;;10.88;9.45;;;8.40;99.90;;;;;;5077312;28;20028;-74
2022/04/12 02:06:00;;;;;;;11.32;9.10;;;8.30;99.90;;;;;;5060294;28;20036;-74
2022/04/12 02:08:26;;;;;;;12.13;9.63;;;8.30;99.90;;;;;;5077162;28;20047;-74
2022/04/12 02:10:51;;;;;;;15.20;9.82;;;8.30;99.90;;;;;;5059983;28;20426;-74
2022/04/12 02:13:17;;;;;;;14.75;10.13;;;8.20;99.90;;;;;;5076872;28;20051;-74
2022/04/12 02:15:43;;;;;;;15.43;9.50;;;8.20;99.90;;;;;;5076472;28;20032;-74
2022/04/12 02:18:09;;;;;;;11.55;8.40;;;8.20;99.90;;;;;;5076488;28;20085;-74
2022/04/12 02:20:34;;;;;;;18.52;9.55;;;8.20;99.90;;;;;;5076494;28;20028;-74
2022/04/12 02:23:00;;;;;;;12.60;9.13;;;8.20;99.90;;;;;;5076372;28;20070;-74
2022/04/12 02:25:25;;;;;;;12.23;8.85;;;8.20;99.90;;;;;;5076590;28;20039;-74
2022/04/12 02:27:51;;;;;;;11.02;9.23;;;8.20;99.90;;;;;;5076642;28;20404;-74
2022/04/12 02:30:18;;;;;;;14.15;9.40;;;8.20;99.90;;;;;;5076307;28;20503;-74
2022/04/12 02:32:43;;;;;;;12.95;9.70;;;8.10;99.90;;;;;;5076253;28;20044;-74
2022/04/12 02:35:09;;;;;;;12.20;8.73;;;8.10;99.90;;;;;;5076215;28;20073;-74
2022/04/12 02:37:35;;;;;;;11.75;8.77;;;8.10;99.90;;;;;;5076103;28;20036;-74
2022/04/12 02:40:02;;;;;;;10.30;8.52;;;8.10;99.90;;;;;;5076082;28;20043;-74
2022/04/12 02:42:28;;;;;;;12.40;8.60;;;8.10;99.90;;;;;;5059644;28;20044;-74
2022/04/12 02:44:53;;;;;;;12.25;8.88;;;8.10;99.90;;;;;;5075977;28;20047;-74
2022/04/12 02:47:19;;;;;;;13.48;9.50;;;8.10;99.90;;;;;;5076185;28;20089;-74
2022/04/12 02:49:44;;;;;;;12.63;9.13;;;8.10;99.90;;;;;;5075955;28;20404;-74
2022/04/12 02:52:10;;;;;;;12.20;9.15;;;8.10;99.90;;;;;;5076151;28;20440;-74
2022/04/12 02:54:38;;;;;;;11.75;8.88;;;8.10;99.90;;;;;;5075763;28;20523;-74
2022/04/12 02:57:04;;;;;;;12.60;9.00;;;8.10;99.90;;;;;;5075141;28;20067;-74
2022/04/12 02:59:29;;;;;;;9.98;8.40;;;8.10;99.90;;;;;;5059030;28;20101;-74
2022/04/12 03:01:55;;;;;;;10.35;8.32;;;8.10;99.90;;;;;;5059024;28;20036;-74
2022/04/12 03:04:20;;;;;;;11.05;8.82;;;8.00;99.90;;;;;;5075638;28;20047;-74
2022/04/12 03:06:46;;;;;;;11.88;8.85;;;8.00;99.90;;;;;;5058946;28;20143;-74
2022/04/12 03:09:12;;;;;;;11.77;9.07;;;8.00;99.90;;;;;;5075412;28;20044;-74
2022/04/12 03:11:39;;;;;;;11.35;9.20;;;8.00;99.90;;;;;;5075531;28;20408;-74
2022/04/12 03:14:04;;;;;;;11.20;8.95;;;8.00;99.90;;;;;;5075448;28;20044;-74
2022/04/12 03:16:30;;;;;;;10.95;9.00;;;8.00;99.90;;;;;;5075430;28;20104;-74
2022/04/12 03:18:55;;;;;;;16.70;9.38;;;7.90;99.90;;;;;;5075341;28;20085;-74
2022/04/12 03:21:21;;;;;;;13.07;9.23;;;7.90;99.90;;;;;;5075352;28;20032;-74
2022/04/12 03:23:46;;;;;;;12.20;9.32;;;7.90;99.90;;;;;;5058668;28;20036;-74
2022/04/12 03:26:12;;;;;;;13.70;9.65;;;7.90;99.90;;;;;;5075373;28;20040;-74
2022/04/12 03:28:37;;;;;;;11.93;9.63;;;7.90;99.90;;;;;;5058561;28;20043;-74
2022/04/12 03:31:03;;;;;;;10.70;9.20;;;7.90;99.90;;;;;;5075238;28;20067;-74
2022/04/12 03:33:28;;;;;;;11.70;9.10;;;7.90;99.90;;;;;;5058590;28;20028;-74
2022/04/12 03:35:54;;;;;;;13.00;10.43;;;7.80;99.90;;;;;;5075289;28;20075;-74
2022/04/12 03:38:19;;;;;;;13.60;9.95;;;7.80;99.90;;;;;;5075274;28;20086;-74
2022/04/12 03:40:46;;;;;;;11.45;10.02;;;7.80;99.90;;;;;;5075523;28;20044;-74
2022/04/12 03:43:12;;;;;;;10.27;9.23;;;7.80;99.90;;;;;;5075374;28;20040;-74
2022/04/12 03:45:37;;;;;;;11.32;9.65;;;7.80;99.90;;;;;;5075130;28;20390;-74
2022/04/12 03:48:04;;;;;;;10.95;9.23;;;7.80;99.90;;;;;;5074999;28;20068;-74
2022/04/12 03:50:31;;;;;;;11.73;9.85;;;7.80;99.90;;;;;;5075111;28;20067;-74
2022/04/12 03:52:56;;;;;;;13.57;10.07;;;7.80;99.90;;;;;;5075007;28;20044;-74
2022/04/12 03:55:31;;;;;;;10.75;9.63;;;7.70;99.90;;;;;;5075036;28;20046;-74
2022/04/12 03:58:07;;;;;;;15.38;10.13;;;7.70;99.90;;;;;;5075261;28;20048;-74
2022/04/12 04:00:34;;;;;;;10.80;9.15;;;7.70;99.90;;;;;;5075024;28;20036;-74
2022/04/12 04:03:00;;;;;;;12.88;8.88;;;7.70;99.90;;;;;;5074948;28;20500;-74
2022/04/12 04:05:26;;;;;;;14.38;9.65;;;7.70;99.90;;;;;;5058242;28;20032;-74
2022/04/12 04:07:52;;;;;;;12.80;9.55;;;7.60;99.90;;;;;;5075235;28;20036;-74
2022/04/12 04:10:18;;;;;;;12.88;9.30;;;7.70;99.90;;;;;;5079172;28;20131;-74
2022/04/12 04:12:44;;;;;;;12.48;9.13;;;7.60;99.90;;;;;;5062150;28;20122;-74
2022/04/12 04:15:13;;;;;;;11.25;8.75;;;7.60;99.90;;;;;;5078916;28;20131;-74
2022/04/12 04:17:43;;;;;;;13.07;9.90;;;7.60;99.90;;;;;;5078586;28;20071;-73
2022/04/12 04:20:10;;;;;;;12.35;9.30;;;7.60;99.90;;;;;;5078722;28;20050;-74
2022/04/12 04:22:36;;;;;;;12.68;8.77;;;7.60;99.90;;;;;;5062280;28;20035;-74
2022/04/12 04:25:02;;;;;;;11.15;9.00;;;7.60;99.90;;;;;;5078693;28;20381;-74
2022/04/12 04:27:28;;;;;;;9.75;8.73;;;7.50;99.90;;;;;;5078892;28;20040;-74
2022/04/12 04:29:55;;;;;;;10.60;9.23;;;7.60;99.90;;;;;;5078514;28;20051;-74
2022/04/12 04:32:22;;;;;;;15.13;9.75;;;7.60;99.90;;;;;;5078544;28;20054;-74
2022/04/12 04:34:47;;;;;;;11.88;8.80;;;7.60;99.90;;;;;;5078447;28;20181;-74
2022/04/12 04:37:13;;;;;;;11.57;8.75;;;7.50;99.90;;;;;;5078404;28;20067;-73
2022/04/12 04:39:39;;;;;;;11.05;8.65;;;7.50;99.90;;;;;;5078095;28;20044;-74
2022/04/12 04:42:05;;;;;;;12.45;9.73;;;7.50;99.90;;;;;;5061627;28;20036;-74
2022/04/12 04:44:34;;;;;;;9.27;8.07;;;7.50;99.90;;;;;;5061880;28;20055;-74
2022/04/12 04:46:59;;;;;;;12.18;9.50;;;7.50;99.90;;;;;;5061782;28;20059;-74
2022/04/12 04:49:25;;;;;;;13.38;9.10;;;7.50;99.90;;;;;;5078137;28;20504;-74
2022/04/12 04:51:51;;;;;;;13.93;9.43;;;7.60;99.90;;;;;;5078293;28;20097;-74
2022/04/12 04:54:17;;;;;;;12.10;8.77;;;7.50;99.90;;;;;;5078205;28;20044;-74
2022/04/12 04:56:42;;;;;;;11.52;8.82;;;7.50;99.90;;;;;;5078087;28;20061;-74
2022/04/12 04:59:10;;;;;;;12.07;9.13;;;7.50;99.90;;;;;;5077980;28;20031;-74
2022/04/12 05:01:35;;;;;;;12.80;9.68;;;7.50;99.90;;;;;;5078175;28;20048;-74
2022/04/12 05:04:01;;;;;;;10.88;9.52;;;7.50;99.90;;;;;;5077910;28;20514;-74
2022/04/12 05:06:27;;;;;;;12.60;8.95;;;7.40;99.90;;;;;;5078184;28;20042;-74
2022/04/12 05:08:52;;;;;;;11.02;9.75;;;7.40;99.90;;;;;;5077750;28;20524;-74
2022/04/12 05:11:18;;;;;;;13.02;9.15;;;7.40;99.90;;;;;;5061415;28;20036;-74
2022/04/12 05:13:44;;;;;;;13.18;10.25;;;7.40;99.90;;;;;;5077688;28;20488;-73
2022/04/12 05:16:09;;;;;;;15.20;11.27;;;7.40;99.90;;;;;;5061295;28;20032;-74
2022/04/12 05:18:35;;;;;;;16.30;11.10;;;7.40;99.90;;;;;;5077473;28;20404;-74
2022/04/12 05:21:00;;;;;;;12.13;9.68;;;7.40;99.90;;;;;;5060636;28;20124;-74
2022/04/12 05:23:26;;;;;;;10.88;8.45;;;7.40;99.90;;;;;;5077505;28;20511;-74
2022/04/12 05:25:53;;;;;;;10.93;8.57;;;7.40;99.90;;;;;;5077457;28;20040;-74
2022/04/12 05:28:20;;;;;;;13.98;9.20;;;7.50;99.90;;;;;;5060616;28;20046;-74
2022/04/12 05:30:46;;;;;;;13.20;9.82;;;7.60;99.90;;;;;;5077483;28;20036;-74
2022/04/12 05:33:12;;;;;;;12.50;8.90;;;7.60;99.90;;;;;;5077365;28;20036;-74
2022/04/12 05:35:38;;;;;;;10.65;8.75;;;7.60;99.90;;;;;;5060530;28;20455;-74
2022/04/12 05:38:06;;;;;;;11.75;8.68;;;7.70;99.90;;;;;;5077292;28;20043;-73
2022/04/12 05:40:31;;;;;;;12.40;9.40;;;7.80;99.90;;;;;;5077547;28;20062;-74
2022/04/12 05:42:57;;;;;;;10.40;8.50;;;7.80;99.90;;;;;;5060685;28;20454;-73
2022/04/12 05:45:23;;;;;;;12.45;8.88;;;7.90;99.90;;;;;;5077175;28;20050;-74
2022/04/12 05:47:50;;;;;;;12.35;8.90;;;7.90;99.90;;;;;;5077103;28;20118;-73
2022/04/12 05:50:18;;;;;;;10.93;8.27;;;8.00;99.90;;;;;;5077573;28;20044;-74
2022/04/12 05:52:44;;;;;;;13.02;8.40;;;8.10;99.90;;;;;;5076989;28;20449;-74
2022/04/12 05:55:12;;;;;;;11.95;8.43;;;8.10;99.90;;;;;;5076983;28;20135;-74
2022/04/12 05:57:50;;;;;;;13.35;8.52;;;8.10;99.90;;;;;;5060215;28;20043;-73
2022/04/12 06:00:18;;;;;;;10.73;7.82;;;8.20;99.90;;;;;;5076843;28;20493;-74
2022/04/12 06:02:45;;;;;;;14.48;8.73;;;8.20;99.90;;;;;;5060451;28;20072;-74
2022/04/12 06:05:13;;;;;;;12.25;8.75;;;8.30;99.90;;;;;;5060173;28;20044;-74
2022/04/12 06:07:40;;;;;;;12.02;8.30;;;8.30;99.90;;;;;;5076704;28;20039;-73
2022/04/12 06:10:07;;;;;;;13.82;7.97;;;8.40;99.90;;;;;;5076716;28;20409;-74
2022/04/12 06:12:32;;;;;;;10.32;7.53;;;8.40;99.90;;;;;;5060286;28;20036;-73
2022/04/12 06:14:58;;;;;;;11.27;8.27;;;8.50;99.90;;;;;;5076548;28;20445;-73
2022/04/12 06:17:41;;;;;;;12.85;8.43;;;8.50;99.90;;;;;;5076482;28;20042;-73
2022/04/12 06:20:10;;;;;;;11.23;8.15;;;8.60;99.90;;;;;;5076462;28;20114;-74
2022/04/12 06:22:37;;;;;;;11.48;7.88;;;8.60;99.90;;;;;;5076710;28;20040;-74
2022/04/12 06:25:03;;;;;;;10.07;7.97;;;8.70;99.90;;;;;;5076316;28;20557;-74
2022/04/12 06:27:52;;;;;;;13.63;8.20;;;8.70;99.90;;;;;;5076545;28;20051;-74
2022/04/12 06:30:30;;;;;;;12.50;8.05;;;8.80;99.90;;;;;;5076013;28;20126;-74
2022/04/12 06:32:56;;;;;;;15.50;8.20;;;8.90;99.90;;;;;;5075857;28;20431;-74
2022/04/12 06:35:22;;;;;;;13.18;8.30;;;8.90;99.90;;;;;;5075968;28;20484;-74
2022/04/12 06:37:52;;;;;;;11.40;7.90;;;9.00;99.90;;;;;;5076222;28;20043;-73
2022/04/12 06:40:19;;;;;;;9.77;7.93;;;9.00;99.90;;;;;;5059613;28;20058;-73
2022/04/12 06:42:47;;;;;;;14.35;8.65;;;9.00;99.90;;;;;;5076595;28;20041;-74
2022/04/12 06:45:12;;;;;;;10.52;8.40;;;9.10;99.90;;;;;;5075658;28;20097;-74
2022/04/12 06:47:39;;;;;;;12.57;7.70;;;9.10;99.90;;;;;;5075835;28;20047;-73
2022/04/12 06:50:06;;;;;;;13.57;8.02;;;9.10;99.90;;;;;;5075886;28;20040;-74
2022/04/12 06:52:32;;;;;;;10.35;8.07;;;9.20;99.90;;;;;;5076022;28;20044;-74
2022/04/12 06:54:58;;;;;;;11.13;8.13;;;9.20;99.90;;;;;;5075807;28;20403;-74
2022/04/12 06:57:24;;;;;;;12.30;8.75;;;9.20;99.90;;;;;;5075636;28;20036;-74
2022/04/12 06:59:51;;;;;;;11.57;8.50;;;9.20;99.90;;;;;;5076261;28;20051;-74
2022/04/12 07:02:17;;;;;;;11.20;8.18;;;9.20;99.90;;;;;;5059359;28;20036;-74
2022/04/12 07:04:42;;;;;;;10.82;8.20;;;9.20;99.90;;;;;;5060151;28;20047;-74
2022/04/12 07:07:08;;;;;;;11.13;8.02;;;9.20;99.90;;;;;;5059347;28;20400;-74
2022/04/12 07:09:34;;;;;;;12.32;8.15;;;9.30;99.90;;;;;;5075506;28;20516;-73
2022/04/12 07:12:01;;;;;;;11.40;8.70;;;9.30;99.90;;;;;;5059159;28;20079;-74
2022/04/12 07:14:29;;;;;;;11.05;7.90;;;9.30;99.90;;;;;;5076797;28;20050;-74
2022/04/12 07:16:55;;;;;;;11.10;8.02;;;9.40;99.90;;;;;;5075495;28;20050;-74
2022/04/12 07:19:21;;;;;;;10.98;7.88;;;9.40;99.90;;;;;;5075393;28;20042;-74
2022/04/12 07:21:47;;;;;;;12.38;8.48;;;9.50;99.90;;;;;;5075399;28;20035;-74
2022/04/12 07:24:13;;;;;;;12.38;8.45;;;9.60;99.90;;;;;;5058954;28;20036;-73
2022/04/12 07:26:39;;;;;;;11.18;8.23;;;9.70;99.90;;;;;;5075581;28;20036;-74
2022/04/12 07:29:05;;;;;;;10.63;8.15;;;9.80;99.90;;;;;;5075522;28;20514;-73
2022/04/12 07:31:31;;;;;;;10.63;8.57;;;9.90;99.90;;;;;;5075551;28;20428;-74
2022/04/12 07:33:56;;;;;;;12.90;8.25;;;10.00;99.90;;;;;;5075402;28;20500;-73
2022/04/12 07:36:22;;;;;;;11.45;8.18;;;10.10;99.90;;;;;;5075532;28;20047;-73
2022/04/12 07:38:49;;;;;;;11.68;8.35;;;10.20;99.90;;;;;;5058312;28;20039;-73
2022/04/12 07:41:18;;;;;;;14.00;8.18;;;10.30;99.90;;;;;;5075223;28;20033;-74
2022/04/12 07:43:47;;;;;;;10.80;7.85;;;10.40;99.90;;;;;;5058256;28;20042;-74
2022/04/12 07:46:13;;;;;;;11.38;8.32;;;10.60;99.30;;;;;;5075908;28;20055;-74
2022/04/12 07:48:40;;;;;;;12.57;8.57;;;10.70;99.00;;;;;;5075058;28;20047;-73
2022/04/12 07:51:06;;;;;;;13.18;7.95;;;10.80;98.60;;;;;;5075073;28;20130;-73
2022/04/12 07:53:31;;;;;;;12.02;8.05;;;11.00;98.30;;;;;;5075385;28;20123;-74
2022/04/12 07:55:57;;;;;;;14.07;7.63;;;11.10;98.40;;;;;;5058383;28;20512;-74
2022/04/12 07:58:22;;;;;;;10.02;7.78;;;11.20;96.90;;;;;;5075181;28;20047;-73
2022/04/12 08:00:48;;;;;;;13.88;7.82;;;11.30;96.40;;;;;;5075247;28;20044;-74
2022/04/12 08:03:13;;;;;;;9.65;7.38;;;11.50;95.40;;;;;;5075568;28;20123;-74
2022/04/12 08:05:39;;;;;;;9.80;7.75;;;11.60;95.10;;;;;;5058356;28;20051;-74
2022/04/12 08:08:05;;;;;;;11.07;7.57;;;11.80;93.90;;;;;;5075087;28;20156;-73
2022/04/12 08:10:31;;;;;;;12.45;7.63;;;11.90;91.90;;;;;;5074968;28;20526;-74
2022/04/12 08:12:57;;;;;;;11.15;7.90;;;12.10;90.60;;;;;;5075100;28;20040;-74
2022/04/12 08:15:23;;;;;;;9.68;7.13;;;12.20;90.10;;;;;;5074768;28;20123;-74
2022/04/12 08:17:49;;;;;;;10.95;7.55;;;12.40;89.10;;;;;;5074721;28;20036;-73
2022/04/12 08:20:15;;;;;;;14.05;8.77;;;12.60;87.40;;;;;;5074842;28;20043;-74
2022/04/12 08:22:42;;;;;;;12.73;8.50;;;12.70;88.50;;;;;;5074733;28;20047;-74
2022/04/12 08:25:09;;;;;;;11.48;7.85;;;12.90;88.70;;;;;;5074690;28;20062;-74
2022/04/12 08:27:36;;;;;;;9.23;7.32;;;13.10;83.50;;;;;;5075021;28;20062;-74
2022/04/12 08:30:02;;;;;;;10.68;7.35;;;13.10;81.40;;;;;;5074898;28;20044;-74
2022/04/12 08:32:29;;;;;;;9.75;7.53;;;13.30;80.80;;;;;;5074686;28;20389;-74
2022/04/12 08:34:55;;;;;;;13.00;7.32;;;13.40;77.00;;;;;;5074616;28;20055;-74
2022/04/12 08:37:21;;;;;;;9.93;6.88;;;13.40;74.00;;;;;;5058164;28;20047;-74
2022/04/12 08:39:47;;;;;;;9.30;7.15;;;13.50;73.40;;;;;;5074667;28;20392;-74
2022/04/12 08:42:13;;;;;;;11.30;7.57;;;13.70;72.80;;;;;;5074797;28;20044;-74
2022/04/12 08:44:45;;;;;;;9.52;7.10;;;13.80;72.40;;;;;;5074557;28;20032;-74
2022/04/12 08:47:16;;;;;;;9.68;6.88;;;14.00;70.10;;;;;;5074557;28;20070;-74
2022/04/12 08:49:42;;;;;;;12.90;7.72;;;14.20;69.20;;;;;;5074751;28;20105;-74
2022/04/12 08:52:13;;;;;;;10.63;7.78;;;14.40;68.80;;;;;;5074490;28;20134;-74
2022/04/12 08:54:43;;;;;;;11.48;7.47;;;14.50;67.80;;;;;;5075660;28;20050;-75
2022/04/12 08:57:09;;;;;;;9.35;7.60;;;14.70;68.00;;;;;;5078045;28;20040;-74
2022/04/12 08:59:36;;;;;;;9.23;6.53;;;14.90;67.30;;;;;;5077860;28;20032;-74
2022/04/12 09:02:02;;;;;;;9.25;6.90;;;15.10;65.80;;;;;;5078008;28;20047;-74
2022/04/12 09:04:28;;;;;;;10.65;6.82;;;15.20;64.30;;;;;;5077945;28;20147;-74
2022/04/12 09:06:58;;;;;;;8.20;6.32;;;15.40;63.00;;;;;;5077913;28;20036;-74
2022/04/12 09:09:26;;;;;;;9.98;6.72;;;15.50;62.40;;;;;;5077731;28;20040;-74
2022/04/12 09:12:06;;;;;;;11.85;6.70;;;15.70;61.70;;;;;;5061236;28;20145;-74
2022/04/12 09:14:46;;;;;;;9.30;6.95;;;15.80;61.60;;;;;;5077950;28;20101;-74
2022/04/12 09:17:14;;;;;;;10.55;6.80;;;16.00;61.20;;;;;;5060944;28;20071;-74
2022/04/12 09:19:40;;;;;;;9.38;6.97;;;16.10;59.90;;;;;;5077570;28;20032;-74
2022/04/12 09:22:19;;;;;;;10.30;7.10;;;16.30;60.20;;;;;;5077631;28;20084;-74
2022/04/12 09:24:49;;;;;;;9.70;7.15;;;16.40;60.50;;;;;;5060908;28;20043;-74
2022/04/12 09:27:20;;;;;;;10.90;7.70;;;16.60;60.20;;;;;;5077788;28;20043;-74
2022/04/12 09:29:52;;;;;;;9.75;6.85;;;16.70;59.40;;;;;;5077729;28;20075;-74
2022/04/12 09:32:23;;;;;;;11.73;7.40;;;16.70;58.50;;;;;;5060643;28;20076;-74
2022/04/12 09:34:50;;;;;;;10.55;7.57;;;16.80;58.20;;;;;;5060667;28;20052;-74
2022/04/12 09:37:25;;;;;;;9.13;6.93;;;16.80;58.40;;;;;;5077345;28;20040;-74
2022/04/12 09:40:00;;;;;;;9.63;7.20;;;17.00;58.80;;;;;;5077071;28;20036;-74
2022/04/12 09:42:40;;;;;;;12.68;7.53;;;17.20;59.20;;;;;;5060769;28;20032;-74
2022/04/12 09:45:08;;;;;;;10.98;7.40;;;17.30;56.70;;;;;;5060626;28;20039;-75
2022/04/12 09:47:34;;;;;;;9.68;7.05;;;17.50;58.40;;;;;;5077536;28;20048;-74
2022/04/12 09:50:00;;;;;;;11.52;7.60;;;17.70;58.20;;;;;;5077217;28;20040;-74
2022/04/12 09:52:27;;;;;;;10.05;7.05;;;17.80;57.10;;;;;;5077404;28;20036;-74
2022/04/12 09:54:54;;;;;;;9.63;7.25;;;17.90;56.00;;;;;;5060240;28;20047;-74
2022/04/12 09:57:21;;;;;;;9.25;7.32;;;18.10;56.40;;;;;;5060345;28;20067;-74
2022/04/12 09:59:47;;;;;;;12.13;7.50;;;18.30;56.30;;;;;;5076817;28;20036;-74
2022/04/12 10:02:14;;;;;;;10.95;6.82;;;18.40;55.60;;;;;;5076884;28;20035;-74
2022/04/12 10:04:44;;;;;;;10.20;7.13;;;18.40;54.80;;;;;;5077426;28;20055;-74
2022/04/12 10:07:11;;;;;;;8.82;6.45;;;18.60;54.70;;;;;;5076927;28;20079;-74
2022/04/12 10:09:38;;;;;;;10.38;6.95;;;18.80;54.10;;;;;;5059968;28;20032;-74
2022/04/12 10:12:08;;;;;;;10.10;7.35;;;18.80;54.50;;;;;;5076645;28;20039;-75
2022/04/12 10:14:34;;;;;;;10.13;6.93;;;18.80;55.00;;;;;;5076560;28;20044;-75
2022/04/12 10:17:01;;;;;;;12.00;7.20;;;19.00;54.60;;;;;;5076507;28;20040;-74
2022/04/12 10:19:28;;;;;;;10.48;6.53;;;19.10;53.80;;;;;;5060832;28;20036;-74
2022/04/12 10:21:53;;;;;;;10.15;6.93;;;19.20;54.60;;;;;;5076524;28;20579;-74
2022/04/12 10:24:20;;;;;;;11.15;7.05;;;19.40;54.10;;;;;;5076396;28;20071;-74
2022/04/12 10:26:47;;;;;;;10.88;7.35;;;19.50;54.10;;;;;;5059949;28;20039;-74
2022/04/12 10:29:15;;;;;;;11.55;6.93;;;19.50;53.40;;;;;;5059623;28;20036;-74
2022/04/12 10:31:57;;;;;;;11.73;7.07;;;19.70;54.30;;;;;;5059556;28;20127;-74
2022/04/12 10:34:23;;;;;;;14.60;7.10;;;19.70;53.60;;;;;;5076271;28;20040;-74
2022/04/12 10:36:54;;;;;;;9.88;6.80;;;19.80;53.60;;;;;;5076286;28;20040;-74
2022/04/12 10:39:37;;;;;;;11.10;6.45;;;20.00;52.80;;;;;;5059315;28;20033;-74
2022/04/12 10:42:08;;;;;;;9.80;6.80;;;19.90;52.10;;;;;;5076098;28;20115;-74
2022/04/12 10:44:56;;;;;;;8.65;6.85;;;19.90;52.90;;;;;;5076912;28;20293;-76
2022/04/12 10:47:24;;;;;;;10.93;7.13;;;20.00;52.40;;;;;;5076712;28;20553;-74
2022/04/12 10:50:05;;;;;;;10.15;6.45;;;20.20;53.00;;;;;;5075873;28;20032;-74
2022/04/12 10:52:42;;;;;;;15.77;7.50;;;20.30;51.60;;;;;;5075977;28;20044;-75
2022/04/12 10:55:14;;;;;;;11.38;6.45;;;20.40;51.70;;;;;;5075915;28;20047;-75
2022/04/12 10:57:40;;;;;;;9.25;6.72;;;20.40;51.60;;;;;;5059125;28;20044;-74
2022/04/12 11:00:12;;;;;;;10.50;7.05;;;20.50;51.20;;;;;;5075714;28;20032;-75
2022/04/12 11:02:51;;;;;;;9.52;6.85;;;20.50;50.90;;;;;;5075757;28;20118;-75
2022/04/12 11:05:44;;;;;;;9.85;6.45;;;20.60;52.20;;;;;;5076294;28;20051;-75
2022/04/12 11:08:15;;;;;;;9.55;6.85;;;20.80;52.30;;;;;;5075860;28;20044;-74
2022/04/12 11:10:42;;;;;;;11.80;6.93;;;20.90;51.80;;;;;;5058900;28;20040;-74
2022/04/12 11:13:10;;;;;;;9.05;6.50;;;21.20;50.60;;;;;;5075611;28;20059;-75
2022/04/12 11:15:40;;;;;;;9.80;6.90;;;21.20;50.60;;;;;;5075423;28;20044;-75
2022/04/12 11:18:16;;;;;;;8.93;5.97;;;21.30;50.70;;;;;;5075264;28;20085;-74
2022/04/12 11:20:57;;;;;;;9.43;6.60;;;21.50;49.70;;;;;;5075482;28;20452;-72
2022/04/12 11:23:54;;;;;;;10.77;6.90;;;21.60;49.10;;;;;;5075412;28;20043;-71
2022/04/12 11:26:38;;;;;;;10.95;6.72;;;21.40;49.10;;;;;;5075366;28;20508;-71
2022/04/12 11:29:30;;;;;;;10.52;6.15;;;21.40;48.60;;;;;;5075310;28;20072;-72
2022/04/12 11:31:57;;;;;;;9.82;6.45;;;21.40;49.10;;;;;;5071702;28;20052;-71
2022/04/12 11:34:27;;;;;;;9.25;6.40;;;21.40;50.50;;;;;;5075228;28;20036;-71
2022/04/12 11:36:54;;;;;;;10.48;6.22;;;21.50;50.10;;;;;;5075490;28;20044;-71
2022/04/12 11:39:28;;;;;;;7.90;6.53;;;21.30;50.50;;;;;;5075291;28;20059;-71
2022/04/12 11:42:01;;;;;;;8.60;6.70;;;21.10;51.30;;;;;;5075138;28;20046;-71
2022/04/12 11:44:27;;;;;;;11.02;6.78;;;21.00;51.30;;;;;;5059314;28;20039;-71
2022/04/12 11:46:58;;;;;;;11.00;6.80;;;21.10;51.60;;;;;;5075178;28;20076;-71
2022/04/12 11:49:29;;;;;;;10.77;6.47;;;21.10;50.10;;;;;;5075278;28;20044;-71
2022/04/12 11:51:59;;;;;;;10.65;6.82;;;21.10;49.30;;;;;;5075390;28;20043;-72
2022/04/12 11:54:27;;;;;;;9.63;6.78;;;21.20;49.70;;;;;;5074997;28;20127;-71
2022/04/12 11:57:01;;;;;;;12.32;7.80;;;21.20;49.70;;;;;;5075071;28;20051;-71
2022/04/12 11:59:51;;;;;;;9.55;7.13;;;21.20;49.30;;;;;;5074966;28;20036;-71
2022/04/12 12:02:25;;;;;;;8.60;7.07;;;21.10;49.10;;;;;;5074653;28;20512;-71
2022/04/12 12:04:53;;;;;;;9.98;7.53;;;21.00;50.20;;;;;;5074974;28;20504;-71
2022/04/12 12:07:20;;;;;;;9.73;7.50;;;20.80;49.80;;;;;;5074937;28;20044;-71
2022/04/12 12:10:06;;;;;;;10.30;7.85;;;20.80;50.10;;;;;;5074860;28;20032;-71
2022/04/12 12:12:34;;;;;;;12.18;7.75;;;20.90;50.10;;;;;;5074957;28;20036;-71
2022/04/12 12:15:17;;;;;;;12.27;8.32;;;20.90;50.80;;;;;;5074787;28;20048;-71
2022/04/12 12:17:44;;;;;;;10.75;7.93;;;20.90;51.50;;;;;;5074802;28;20488;-72
2022/04/12 12:20:14;;;;;;;12.63;8.40;;;21.00;51.00;;;;;;5074785;28;20101;-71
2022/04/12 12:22:42;;;;;;;13.38;8.25;;;21.10;51.20;;;;;;5074798;28;20040;-71
2022/04/12 12:25:08;;;;;;;13.52;8.32;;;21.20;51.10;;;;;;5074996;28;20119;-71
2022/04/12 12:27:38;;;;;;;11.15;8.43;;;21.30;50.60;;;;;;5074792;28;20079;-71
2022/04/12 12:30:14;;;;;;;12.52;9.07;;;21.40;49.90;;;;;;5076639;28;20048;-72
2022/04/12 12:32:42;;;;;;;14.00;8.40;;;21.40;49.40;;;;;;5078818;28;20047;-72
2022/04/12 12:35:13;;;;;;;13.35;8.48;;;21.40;50.00;;;;;;5078331;28;20561;-72
2022/04/12 12:37:40;;;;;;;15.23;8.82;;;21.50;49.70;;;;;;5078666;28;20035;-74
2022/04/12 12:40:26;;;;;;;11.40;8.25;;;21.70;49.50;;;;;;5078245;28;20040;-73
2022/04/12 12:42:53;;;;;;;15.85;9.43;;;21.90;50.60;;;;;;5078315;28;20538;-75
2022/04/12 12:45:25;;;;;;;12.00;8.70;;;22.00;50.10;;;;;;5078244;28;20051;-72
2022/04/12 12:47:56;;;;;;;11.95;8.93;;;22.10;50.90;;;;;;5078302;28;20127;-75
2022/04/12 12:50:24;;;;;;;11.77;9.27;;;22.30;50.30;;;;;;5078249;28;20040;-75